sensor_id;sensor_type;location;lat;lon;timestamp;pressure;altitude;pressure_sealevel;temperature;humidity
36190;BME280;22232;50.914;13.858;2023-01-29T00:02:15;98942.41;;;-3.90;100.00
36190;BME280;22232;50.914;13.858;2023-01-29T00:04:43;98934.59;;;-3.90;100.00
36190;BME280;22232;50.914;13.858;2023-01-29T00:07:11;98925.13;;;-3.92;100.00
36190;BME280;22232;50.914;13.858;2023-01-29T00:09:38;98918.13;;;-3.91;100.00
36190;BME280;22232;50.914;13.858;2023-01-29T00:12:06;98918.94;;;-3.90;100.00
36190;BME280;22232;50.914;13.858;2023-01-29T00:14:36;98915.44;;;-3.89;100.00
36190;BME280;22232;50.914;13.858;2023-01-29T00:17:04;98898.72;;;-3.87;100.00
36190;BME280;22232;50.914;13.858;2023-01-29T00:19:31;98909.34;;;-3.90;100.00
36190;BME280;22232;50.914;13.858;2023-01-29T00:21:59;98910.22;;;-3.89;100.00
36190;BME280;22232;50.914;13.858;2023-01-29T00:24:26;98897.06;;;-3.88;100.00
36190;BME280;22232;50.914;13.858;2023-01-29T00:26:54;98894.56;;;-3.89;100.00
36190;BME280;22232;50.914;13.858;2023-01-29T00:29:21;98911.88;;;-3.88;100.00
36190;BME280;22232;50.914;13.858;2023-01-29T00:31:49;98895.03;;;-3.84;100.00
36190;BME280;22232;50.914;13.858;2023-01-29T00:34:17;98895.78;;;-3.82;100.00
36190;BME280;22232;50.914;13.858;2023-01-29T00:36:45;98901.09;;;-3.84;100.00
36190;BME280;22232;50.914;13.858;2023-01-29T00:39:12;98897.88;;;-3.87;100.00
36190;BME280;22232;50.914;13.858;2023-01-29T00:41:40;98905.59;;;-3.86;100.00
36190;BME280;22232;50.914;13.858;2023-01-29T00:44:26;98899.56;;;-3.86;100.00
36190;BME280;22232;50.914;13.858;2023-01-29T00:47:12;98890.19;;;-3.89;100.00
36190;BME280;22232;50.914;13.858;2023-01-29T00:50:03;98875.47;;;-3.90;100.00
36190;BME280;22232;50.914;13.858;2023-01-29T00:52:31;98870.38;;;-3.92;100.00
36190;BME280;22232;50.914;13.858;2023-01-29T00:54:59;98874.16;;;-3.96;100.00
36190;BME280;22232;50.914;13.858;2023-01-29T00:57:28;98875.00;;;-3.95;100.00
36190;BME280;22232;50.914;13.858;2023-01-29T00:59:56;98882.59;;;-3.92;100.00
36190;BME280;22232;50.914;13.858;2023-01-29T01:02:26;98879.03;;;-3.91;100.00
36190;BME280;22232;50.914;13.858;2023-01-29T01:05:15;98872.03;;;-3.90;100.00
36190;BME280;22232;50.914;13.858;2023-01-29T01:07:49;98872.88;;;-3.90;100.00
36190;BME280;22232;50.914;13.858;2023-01-29T01:10:19;98881.63;;;-3.91;100.00
36190;BME280;22232;50.914;13.858;2023-01-29T01:12:59;98885.81;;;-3.88;100.00
36190;BME280;22232;50.914;13.858;2023-01-29T01:15:30;98880.22;;;-3.84;100.00
36190;BME280;22232;50.914;13.858;2023-01-29T01:17:59;98889.84;;;-3.84;100.00
36190;BME280;22232;50.914;13.858;2023-01-29T01:20:29;98890.78;;;-3.85;100.00
36190;BME280;22232;50.914;13.858;2023-01-29T01:22:57;98888.06;;;-3.84;100.00
36190;BME280;22232;50.914;13.858;2023-01-29T01:25:25;98891.38;;;-3.82;100.00
36190;BME280;22232;50.914;13.858;2023-01-29T01:27:55;98889.84;;;-3.84;100.00
36190;BME280;22232;50.914;13.858;2023-01-29T01:30:24;98895.19;;;-3.86;100.00
36190;BME280;22232;50.914;13.858;2023-01-29T01:32:52;98892.56;;;-3.86;100.00
36190;BME280;22232;50.914;13.858;2023-01-29T01:35:20;98883.91;;;-3.86;100.00
36190;BME280;22232;50.914;13.858;2023-01-29T01:37:48;98880.38;;;-3.85;100.00
36190;BME280;22232;50.914;13.858;2023-01-29T01:40:21;98878.59;;;-3.85;100.00
36190;BME280;22232;50.914;13.858;2023-01-29T01:42:59;98868.28;;;-3.86;100.00
36190;BME280;22232;50.914;13.858;2023-01-29T01:45:33;98870.75;;;-3.85;100.00
36190;BME280;22232;50.914;13.858;2023-01-29T01:48:18;98863.31;;;-3.89;100.00
36190;BME280;22232;50.914;13.858;2023-01-29T01:50:51;98861.84;;;-3.94;100.00
36190;BME280;22232;50.914;13.858;2023-01-29T01:53:28;98867.19;;;-3.95;100.00
36190;BME280;22232;50.914;13.858;2023-01-29T01:56:02;98868.94;;;-3.96;100.00
36190;BME280;22232;50.914;13.858;2023-01-29T01:58:32;98860.19;;;-3.95;100.00
36190;BME280;22232;50.914;13.858;2023-01-29T02:01:05;98869.66;;;-3.94;100.00
36190;BME280;22232;50.914;13.858;2023-01-29T02:04:02;98865.50;;;-3.96;100.00
36190;BME280;22232;50.914;13.858;2023-01-29T02:06:51;98863.84;;;-3.97;100.00
36190;BME280;22232;50.914;13.858;2023-01-29T02:09:42;98869.16;;;-3.99;100.00
36190;BME280;22232;50.914;13.858;2023-01-29T02:12:14;98879.72;;;-4.00;100.00
36190;BME280;22232;50.914;13.858;2023-01-29T02:14:43;98871.91;;;-4.00;100.00
36190;BME280;22232;50.914;13.858;2023-01-29T02:17:13;98872.84;;;-4.01;100.00
36190;BME280;22232;50.914;13.858;2023-01-29T02:37:01;98848.38;;;-4.11;100.00
36190;BME280;22232;50.914;13.858;2023-01-29T02:39:39;98849.66;;;-4.17;100.00
36190;BME280;22232;50.914;13.858;2023-01-29T02:42:23;98846.59;;;-4.22;100.00
36190;BME280;22232;50.914;13.858;2023-01-29T02:45:06;98849.88;;;-4.20;100.00
36190;BME280;22232;50.914;13.858;2023-01-29T02:47:46;98841.38;;;-4.22;100.00
36190;BME280;22232;50.914;13.858;2023-01-29T02:50:31;98833.66;;;-4.24;100.00
36190;BME280;22232;50.914;13.858;2023-01-29T02:53:05;98832.97;;;-4.26;100.00
36190;BME280;22232;50.914;13.858;2023-01-29T02:55:45;98834.09;;;-4.30;100.00
36190;BME280;22232;50.914;13.858;2023-01-29T02:58:38;98835.06;;;-4.31;100.00
36190;BME280;22232;50.914;13.858;2023-01-29T03:01:15;98841.31;;;-4.33;100.00
36190;BME280;22232;50.914;13.858;2023-01-29T03:03:52;98840.50;;;-4.34;100.00
36190;BME280;22232;50.914;13.858;2023-01-29T03:06:26;98849.56;;;-4.40;100.00
36190;BME280;22232;50.914;13.858;2023-01-29T03:09:06;98834.91;;;-4.41;100.00
36190;BME280;22232;50.914;13.858;2023-01-29T03:11:41;98835.81;;;-4.42;100.00
36190;BME280;22232;50.914;13.858;2023-01-29T03:14:11;98832.84;;;-4.48;100.00
36190;BME280;22232;50.914;13.858;2023-01-29T03:16:51;98845.25;;;-4.52;100.00
36190;BME280;22232;50.914;13.858;2023-01-29T03:19:40;98860.25;;;-4.55;100.00
36190;BME280;22232;50.914;13.858;2023-01-29T03:22:19;98852.75;;;-4.60;100.00
36190;BME280;22232;50.914;13.858;2023-01-29T03:24:53;98860.09;;;-4.65;100.00
36190;BME280;22232;50.914;13.858;2023-01-29T03:30:44;98859.78;;;-4.73;100.00
36190;BME280;22232;50.914;13.858;2023-01-29T03:33:49;98867.91;;;-4.78;100.00
36190;BME280;22232;50.914;13.858;2023-01-29T03:36:34;98867.41;;;-4.83;100.00
36190;BME280;22232;50.914;13.858;2023-01-29T03:39:13;98858.78;;;-4.83;100.00
36190;BME280;22232;50.914;13.858;2023-01-29T03:50:08;98858.91;;;-4.98;100.00
36190;BME280;22232;50.914;13.858;2023-01-29T03:52:47;98859.41;;;-5.05;100.00
36190;BME280;22232;50.914;13.858;2023-01-29T03:55:23;98859.53;;;-5.07;100.00
36190;BME280;22232;50.914;13.858;2023-01-29T03:58:08;98857.38;;;-5.13;100.00
36190;BME280;22232;50.914;13.858;2023-01-29T04:00:55;98858.53;;;-5.17;100.00
36190;BME280;22232;50.914;13.858;2023-01-29T04:05:57;98860.38;;;-5.19;100.00
36190;BME280;22232;50.914;13.858;2023-01-29T04:09:19;98859.66;;;-5.21;100.00
36190;BME280;22232;50.914;13.858;2023-01-29T04:12:03;98856.34;;;-5.23;100.00
36190;BME280;22232;50.914;13.858;2023-01-29T04:14:32;98850.41;;;-5.25;100.00
36190;BME280;22232;50.914;13.858;2023-01-29T04:17:08;98853.75;;;-5.23;100.00
36190;BME280;22232;50.914;13.858;2023-01-29T04:19:44;98847.47;;;-5.21;100.00
36190;BME280;22232;50.914;13.858;2023-01-29T04:22:34;98834.06;;;-5.27;100.00
36190;BME280;22232;50.914;13.858;2023-01-29T04:25:09;98829.59;;;-5.25;100.00
36190;BME280;22232;50.914;13.858;2023-01-29T04:27:56;98828.78;;;-5.26;100.00
36190;BME280;22232;50.914;13.858;2023-01-29T04:44:46;98798.91;;;-5.33;100.00
36190;BME280;22232;50.914;13.858;2023-01-29T04:50:47;98789.56;;;-5.36;100.00
36190;BME280;22232;50.914;13.858;2023-01-29T04:53:25;98782.69;;;-5.37;100.00
36190;BME280;22232;50.914;13.858;2023-01-29T04:56:18;98784.69;;;-5.40;100.00
36190;BME280;22232;50.914;13.858;2023-01-29T04:58:51;98773.97;;;-5.48;100.00
36190;BME280;22232;50.914;13.858;2023-01-29T05:01:22;98765.47;;;-5.50;100.00
36190;BME280;22232;50.914;13.858;2023-01-29T05:03:56;98764.53;;;-5.49;100.00
36190;BME280;22232;50.914;13.858;2023-01-29T05:06:25;98755.91;;;-5.50;100.00
36190;BME280;22232;50.914;13.858;2023-01-29T05:08:54;98751.84;;;-5.54;100.00
36190;BME280;22232;50.914;13.858;2023-01-29T05:11:24;98744.16;;;-5.56;100.00
36190;BME280;22232;50.914;13.858;2023-01-29T05:13:52;98753.94;;;-5.59;100.00
36190;BME280;22232;50.914;13.858;2023-01-29T05:16:24;98744.25;;;-5.57;100.00
36190;BME280;22232;50.914;13.858;2023-01-29T05:18:53;98746.97;;;-5.59;100.00
36190;BME280;22232;50.914;13.858;2023-01-29T05:21:21;98737.41;;;-5.58;100.00
36190;BME280;22232;50.914;13.858;2023-01-29T05:26:39;98740.34;;;-5.63;100.00
36190;BME280;22232;50.914;13.858;2023-01-29T05:29:27;98739.38;;;-5.62;100.00
36190;BME280;22232;50.914;13.858;2023-01-29T05:31:54;98741.16;;;-5.62;100.00
36190;BME280;22232;50.914;13.858;2023-01-29T05:34:22;98747.91;;;-5.60;100.00
36190;BME280;22232;50.914;13.858;2023-01-29T05:36:50;98743.97;;;-5.65;100.00
36190;BME280;22232;50.914;13.858;2023-01-29T05:39:17;98743.03;;;-5.64;100.00
36190;BME280;22232;50.914;13.858;2023-01-29T05:41:45;98730.25;;;-5.67;100.00
36190;BME280;22232;50.914;13.858;2023-01-29T05:44:13;98739.69;;;-5.66;100.00
36190;BME280;22232;50.914;13.858;2023-01-29T05:46:40;98741.59;;;-5.68;100.00
36190;BME280;22232;50.914;13.858;2023-01-29T05:49:08;98738.38;;;-5.72;100.00
36190;BME280;22232;50.914;13.858;2023-01-29T05:51:35;98735.84;;;-5.73;100.00
36190;BME280;22232;50.914;13.858;2023-01-29T05:54:03;98742.41;;;-5.81;100.00
36190;BME280;22232;50.914;13.858;2023-01-29T05:56:31;98732.03;;;-5.81;100.00
36190;BME280;22232;50.914;13.858;2023-01-29T05:58:58;98738.88;;;-5.80;100.00
36190;BME280;22232;50.914;13.858;2023-01-29T06:01:26;98739.00;;;-5.81;100.00
36190;BME280;22232;50.914;13.858;2023-01-29T06:03:53;98743.34;;;-5.82;100.00
36190;BME280;22232;50.914;13.858;2023-01-29T06:06:21;98738.13;;;-5.82;100.00
36190;BME280;22232;50.914;13.858;2023-01-29T06:08:48;98732.94;;;-5.82;100.00
36190;BME280;22232;50.914;13.858;2023-01-29T06:11:16;98737.44;;;-5.84;100.00
36190;BME280;22232;50.914;13.858;2023-01-29T06:13:44;98746.34;;;-5.88;100.00
36190;BME280;22232;50.914;13.858;2023-01-29T06:16:13;98744.19;;;-5.94;100.00
36190;BME280;22232;50.914;13.858;2023-01-29T06:18:41;98750.34;;;-5.95;100.00
36190;BME280;22232;50.914;13.858;2023-01-29T06:21:11;98744.19;;;-5.94;100.00
36190;BME280;22232;50.914;13.858;2023-01-29T06:23:39;98741.59;;;-5.94;100.00
36190;BME280;22232;50.914;13.858;2023-01-29T06:26:12;98746.78;;;-5.94;100.00
36190;BME280;22232;50.914;13.858;2023-01-29T06:28:40;98747.50;;;-5.92;100.00
36190;BME280;22232;50.914;13.858;2023-01-29T06:31:09;98753.22;;;-5.87;100.00
36190;BME280;22232;50.914;13.858;2023-01-29T06:33:57;98760.06;;;-5.86;100.00
36190;BME280;22232;50.914;13.858;2023-01-29T06:36:25;98772.66;;;-5.80;100.00
36190;BME280;22232;50.914;13.858;2023-01-29T06:38:52;98776.91;;;-5.79;100.00
36190;BME280;22232;50.914;13.858;2023-01-29T06:41:20;98782.00;;;-5.77;100.00
36190;BME280;22232;50.914;13.858;2023-01-29T06:43:53;98800.06;;;-5.76;100.00
36190;BME280;22232;50.914;13.858;2023-01-29T06:46:20;98809.66;;;-5.76;100.00
36190;BME280;22232;50.914;13.858;2023-01-29T06:48:48;98806.97;;;-5.74;100.00
36190;BME280;22232;50.914;13.858;2023-01-29T06:51:15;98805.50;;;-5.66;100.00
36190;BME280;22232;50.914;13.858;2023-01-29T06:53:43;98805.72;;;-5.56;100.00
36190;BME280;22232;50.914;13.858;2023-01-29T06:56:12;98811.72;;;-5.43;100.00
36190;BME280;22232;50.914;13.858;2023-01-29T06:58:40;98814.00;;;-5.25;100.00
36190;BME280;22232;50.914;13.858;2023-01-29T07:01:10;98820.22;;;-5.15;100.00
36190;BME280;22232;50.914;13.858;2023-01-29T07:03:51;98830.81;;;-5.05;100.00
36190;BME280;22232;50.914;13.858;2023-01-29T07:06:19;98824.03;;;-4.95;100.00
36190;BME280;22232;50.914;13.858;2023-01-29T07:08:46;98829.31;;;-4.84;100.00
36190;BME280;22232;50.914;13.858;2023-01-29T07:11:14;98827.81;;;-4.75;100.00
36190;BME280;22232;50.914;13.858;2023-01-29T07:13:41;98821.25;;;-4.68;100.00
36190;BME280;22232;50.914;13.858;2023-01-29T07:16:09;98824.47;;;-4.65;100.00
36190;BME280;22232;50.914;13.858;2023-01-29T07:18:36;98832.44;;;-4.55;100.00
36190;BME280;22232;50.914;13.858;2023-01-29T07:21:05;98850.97;;;-4.47;100.00
36190;BME280;22232;50.914;13.858;2023-01-29T07:23:34;98842.72;;;-4.41;100.00
36190;BME280;22232;50.914;13.858;2023-01-29T07:26:03;98844.75;;;-4.33;100.00
36190;BME280;22232;50.914;13.858;2023-01-29T07:28:35;98854.00;;;-4.29;100.00
36190;BME280;22232;50.914;13.858;2023-01-29T07:31:04;98850.97;;;-4.23;100.00
36190;BME280;22232;50.914;13.858;2023-01-29T07:33:32;98853.94;;;-4.16;100.00
36190;BME280;22232;50.914;13.858;2023-01-29T07:36:00;98853.50;;;-4.10;100.00
36190;BME280;22232;50.914;13.858;2023-01-29T07:38:28;98849.84;;;-4.07;100.00
36190;BME280;22232;50.914;13.858;2023-01-29T07:40:58;98850.31;;;-4.02;100.00
36190;BME280;22232;50.914;13.858;2023-01-29T07:43:28;98831.84;;;-3.99;100.00
36190;BME280;22232;50.914;13.858;2023-01-29T07:46:01;98843.50;;;-3.92;100.00
36190;BME280;22232;50.914;13.858;2023-01-29T07:48:29;98843.28;;;-3.89;100.00
36190;BME280;22232;50.914;13.858;2023-01-29T07:50:57;98837.72;;;-3.84;100.00
36190;BME280;22232;50.914;13.858;2023-01-29T07:53:26;98825.41;;;-3.82;100.00
36190;BME280;22232;50.914;13.858;2023-01-29T07:55:54;98833.72;;;-3.77;100.00
36190;BME280;22232;50.914;13.858;2023-01-29T07:58:22;98821.16;;;-3.72;100.00
36190;BME280;22232;50.914;13.858;2023-01-29T08:00:50;98811.22;;;-3.67;100.00
36190;BME280;22232;50.914;13.858;2023-01-29T08:03:18;98797.56;;;-3.59;100.00
36190;BME280;22232;50.914;13.858;2023-01-29T08:05:46;98797.34;;;-3.56;100.00
36190;BME280;22232;50.914;13.858;2023-01-29T08:08:14;98802.56;;;-3.45;100.00
36190;BME280;22232;50.914;13.858;2023-01-29T08:10:42;98788.00;;;-3.36;100.00
36190;BME280;22232;50.914;13.858;2023-01-29T08:13:09;98788.50;;;-3.31;100.00
36190;BME280;22232;50.914;13.858;2023-01-29T08:15:37;98786.00;;;-3.21;100.00
36190;BME280;22232;50.914;13.858;2023-01-29T08:18:05;98785.38;;;-3.14;100.00
36190;BME280;22232;50.914;13.858;2023-01-29T08:20:33;98776.81;;;-3.05;100.00
36190;BME280;22232;50.914;13.858;2023-01-29T08:23:03;98759.38;;;-2.93;100.00
36190;BME280;22232;50.914;13.858;2023-01-29T08:25:31;98769.06;;;-2.72;100.00
36190;BME280;22232;50.914;13.858;2023-01-29T08:27:59;98763.31;;;-2.55;100.00
36190;BME280;22232;50.914;13.858;2023-01-29T08:30:29;98751.56;;;-2.28;100.00
36190;BME280;22232;50.914;13.858;2023-01-29T08:32:57;98745.25;;;-2.05;100.00
36190;BME280;22232;50.914;13.858;2023-01-29T08:35:25;98737.38;;;-1.94;100.00
36190;BME280;22232;50.914;13.858;2023-01-29T08:37:58;98736.63;;;-1.75;100.00
36190;BME280;22232;50.914;13.858;2023-01-29T08:40:28;98740.31;;;-1.56;100.00
36190;BME280;22232;50.914;13.858;2023-01-29T08:42:59;98734.53;;;-1.50;100.00
36190;BME280;22232;50.914;13.858;2023-01-29T08:45:31;98730.13;;;-1.50;100.00
36190;BME280;22232;50.914;13.858;2023-01-29T08:47:59;98732.38;;;-1.45;100.00
36190;BME280;22232;50.914;13.858;2023-01-29T08:50:27;98728.75;;;-1.54;100.00
36190;BME280;22232;50.914;13.858;2023-01-29T08:52:58;98732.97;;;-1.63;100.00
36190;BME280;22232;50.914;13.858;2023-01-29T08:55:26;98747.69;;;-1.62;100.00
36190;BME280;22232;50.914;13.858;2023-01-29T08:57:54;98764.28;;;-1.51;100.00
36190;BME280;22232;50.914;13.858;2023-01-29T09:00:23;98767.44;;;-1.57;100.00
36190;BME280;22232;50.914;13.858;2023-01-29T09:02:51;98757.91;;;-1.58;100.00
36190;BME280;22232;50.914;13.858;2023-01-29T09:05:18;98762.50;;;-1.51;100.00
36190;BME280;22232;50.914;13.858;2023-01-29T09:07:46;98757.50;;;-1.64;100.00
36190;BME280;22232;50.914;13.858;2023-01-29T09:10:14;98754.25;;;-1.46;100.00
36190;BME280;22232;50.914;13.858;2023-01-29T09:12:42;98758.13;;;-1.41;100.00
36190;BME280;22232;50.914;13.858;2023-01-29T09:15:10;98745.53;;;-1.26;100.00
36190;BME280;22232;50.914;13.858;2023-01-29T09:17:37;98738.41;;;-1.14;100.00
36190;BME280;22232;50.914;13.858;2023-01-29T09:20:06;98728.66;;;-1.02;100.00
36190;BME280;22232;50.914;13.858;2023-01-29T09:22:34;98729.47;;;-1.02;100.00
36190;BME280;22232;50.914;13.858;2023-01-29T09:25:02;98728.09;;;-1.06;100.00
36190;BME280;22232;50.914;13.858;2023-01-29T09:27:29;98727.84;;;-0.93;100.00
36190;BME280;22232;50.914;13.858;2023-01-29T09:29:57;98728.38;;;-0.99;100.00
36190;BME280;22232;50.914;13.858;2023-01-29T09:32:25;98733.34;;;-0.86;100.00
36190;BME280;22232;50.914;13.858;2023-01-29T09:35:12;98732.38;;;-0.95;100.00
36190;BME280;22232;50.914;13.858;2023-01-29T09:37:40;98721.06;;;-0.96;100.00
36190;BME280;22232;50.914;13.858;2023-01-29T09:40:24;98716.78;;;-1.06;100.00
36190;BME280;22232;50.914;13.858;2023-01-29T09:43:05;98724.56;;;-1.26;100.00
36190;BME280;22232;50.914;13.858;2023-01-29T09:45:34;98729.34;;;-1.00;100.00
36190;BME280;22232;50.914;13.858;2023-01-29T09:48:03;98731.13;;;-1.01;100.00
36190;BME280;22232;50.914;13.858;2023-01-29T09:50:38;98734.34;;;-0.78;100.00
36190;BME280;22232;50.914;13.858;2023-01-29T09:55:42;98716.00;;;-0.68;100.00
36190;BME280;22232;50.914;13.858;2023-01-29T10:01:02;98707.72;;;-0.34;100.00
36190;BME280;22232;50.914;13.858;2023-01-29T10:03:42;98708.97;;;-0.19;100.00
36190;BME280;22232;50.914;13.858;2023-01-29T10:12:14;98690.44;;;0.02;100.00
36190;BME280;22232;50.914;13.858;2023-01-29T10:14:59;98682.16;;;0.07;100.00
36190;BME280;22232;50.914;13.858;2023-01-29T10:23:26;98668.63;;;0.39;100.00
36190;BME280;22232;50.914;13.858;2023-01-29T10:25:58;98670.38;;;0.48;100.00
36190;BME280;22232;50.914;13.858;2023-01-29T10:28:41;98663.44;;;0.57;100.00
36190;BME280;22232;50.914;13.858;2023-01-29T10:31:24;98676.44;;;0.58;100.00
36190;BME280;22232;50.914;13.858;2023-01-29T10:34:02;98663.97;;;0.60;100.00
36190;BME280;22232;50.914;13.858;2023-01-29T10:36:47;98674.38;;;0.52;100.00
36190;BME280;22232;50.914;13.858;2023-01-29T10:39:23;98674.56;;;0.41;100.00
36190;BME280;22232;50.914;13.858;2023-01-29T10:53:08;98670.03;;;0.61;100.00
36190;BME280;22232;50.914;13.858;2023-01-29T10:59:42;98677.47;;;0.38;100.00
36190;BME280;22232;50.914;13.858;2023-01-29T11:02:16;98666.78;;;0.21;100.00
36190;BME280;22232;50.914;13.858;2023-01-29T11:04:44;98649.66;;;0.17;100.00
36190;BME280;22232;50.914;13.858;2023-01-29T11:07:15;98646.69;;;0.40;100.00
36190;BME280;22232;50.914;13.858;2023-01-29T11:09:56;98647.38;;;0.60;100.00
36190;BME280;22232;50.914;13.858;2023-01-29T11:12:30;98648.59;;;0.65;100.00
36190;BME280;22232;50.914;13.858;2023-01-29T11:15:15;98644.53;;;0.53;100.00
36190;BME280;22232;50.914;13.858;2023-01-29T11:18:10;98628.09;;;0.51;100.00
36190;BME280;22232;50.914;13.858;2023-01-29T11:20:42;98624.75;;;0.59;100.00
36190;BME280;22232;50.914;13.858;2023-01-29T11:23:28;98616.59;;;0.80;100.00
36190;BME280;22232;50.914;13.858;2023-01-29T11:25:58;98605.25;;;0.97;100.00
36190;BME280;22232;50.914;13.858;2023-01-29T11:28:40;98602.81;;;1.13;100.00
36190;BME280;22232;50.914;13.858;2023-01-29T11:31:25;98602.50;;;1.17;100.00
36190;BME280;22232;50.914;13.858;2023-01-29T11:34:20;98594.25;;;1.11;100.00
36190;BME280;22232;50.914;13.858;2023-01-29T11:37:01;98591.00;;;1.18;100.00
36190;BME280;22232;50.914;13.858;2023-01-29T11:39:30;98581.53;;;1.25;100.00
36190;BME280;22232;50.914;13.858;2023-01-29T11:42:03;98572.69;;;1.26;100.00
36190;BME280;22232;50.914;13.858;2023-01-29T11:47:15;98566.97;;;1.30;100.00
36190;BME280;22232;50.914;13.858;2023-01-29T11:49:53;98560.94;;;1.38;100.00
36190;BME280;22232;50.914;13.858;2023-01-29T11:52:34;98564.63;;;1.27;100.00
36190;BME280;22232;50.914;13.858;2023-01-29T11:55:05;98571.47;;;1.38;100.00
36190;BME280;22232;50.914;13.858;2023-01-29T11:57:50;98582.13;;;1.19;100.00
36190;BME280;22232;50.914;13.858;2023-01-29T12:00:23;98572.44;;;1.37;100.00
36190;BME280;22232;50.914;13.858;2023-01-29T12:05:29;98559.75;;;1.32;100.00
36190;BME280;22232;50.914;13.858;2023-01-29T12:07:58;98553.00;;;1.30;100.00
36190;BME280;22232;50.914;13.858;2023-01-29T12:10:39;98556.63;;;1.29;100.00
36190;BME280;22232;50.914;13.858;2023-01-29T12:15:47;98551.56;;;0.74;100.00
36190;BME280;22232;50.914;13.858;2023-01-29T12:18:38;98546.97;;;0.76;100.00
36190;BME280;22232;50.914;13.858;2023-01-29T12:21:19;98548.84;;;0.65;100.00
36190;BME280;22232;50.914;13.858;2023-01-29T12:23:54;98546.81;;;0.59;100.00
36190;BME280;22232;50.914;13.858;2023-01-29T12:26:31;98542.16;;;0.53;100.00
36190;BME280;22232;50.914;13.858;2023-01-29T12:29:47;98537.13;;;0.42;100.00
36190;BME280;22232;50.914;13.858;2023-01-29T12:32:24;98526.63;;;0.42;100.00
36190;BME280;22232;50.914;13.858;2023-01-29T12:38:01;98522.69;;;0.74;100.00
36190;BME280;22232;50.914;13.858;2023-01-29T12:43:16;98512.47;;;0.88;100.00
36190;BME280;22232;50.914;13.858;2023-01-29T12:45:48;98505.16;;;1.00;100.00
36190;BME280;22232;50.914;13.858;2023-01-29T12:48:23;98505.22;;;1.08;100.00
36190;BME280;22232;50.914;13.858;2023-01-29T12:51:06;98495.09;;;1.13;100.00
36190;BME280;22232;50.914;13.858;2023-01-29T12:53:40;98501.44;;;1.29;100.00
36190;BME280;22232;50.914;13.858;2023-01-29T12:56:38;98501.22;;;1.22;100.00
36190;BME280;22232;50.914;13.858;2023-01-29T12:59:23;98499.94;;;1.26;100.00
36190;BME280;22232;50.914;13.858;2023-01-29T13:02:21;98497.72;;;1.13;100.00
36190;BME280;22232;50.914;13.858;2023-01-29T13:04:56;98495.38;;;1.10;100.00
36190;BME280;22232;50.914;13.858;2023-01-29T13:07:30;98496.47;;;0.82;100.00
36190;BME280;22232;50.914;13.858;2023-01-29T13:10:17;98496.03;;;0.86;100.00
36190;BME280;22232;50.914;13.858;2023-01-29T13:12:54;98499.25;;;0.98;100.00
36190;BME280;22232;50.914;13.858;2023-01-29T13:15:23;98497.13;;;1.02;100.00
36190;BME280;22232;50.914;13.858;2023-01-29T13:20:55;98479.88;;;0.99;100.00
36190;BME280;22232;50.914;13.858;2023-01-29T13:23:36;98466.94;;;1.06;100.00
36190;BME280;22232;50.914;13.858;2023-01-29T13:26:04;98464.22;;;0.89;100.00
36190;BME280;22232;50.914;13.858;2023-01-29T13:28:32;98466.22;;;0.96;100.00
36190;BME280;22232;50.914;13.858;2023-01-29T13:31:29;98479.78;;;0.91;100.00
36190;BME280;22232;50.914;13.858;2023-01-29T13:34:00;98464.41;;;0.96;100.00
36190;BME280;22232;50.914;13.858;2023-01-29T13:36:30;98461.84;;;1.04;100.00
36190;BME280;22232;50.914;13.858;2023-01-29T13:39:04;98463.06;;;1.18;100.00
36190;BME280;22232;50.914;13.858;2023-01-29T13:41:35;98456.25;;;1.25;100.00
36190;BME280;22232;50.914;13.858;2023-01-29T13:44:14;98465.31;;;1.31;100.00
36190;BME280;22232;50.914;13.858;2023-01-29T13:47:09;98460.31;;;1.20;100.00
36190;BME280;22232;50.914;13.858;2023-01-29T13:49:42;98457.69;;;1.20;100.00
36190;BME280;22232;50.914;13.858;2023-01-29T13:52:35;98454.69;;;1.14;100.00
36190;BME280;22232;50.914;13.858;2023-01-29T13:57:50;98470.56;;;1.05;100.00
36190;BME280;22232;50.914;13.858;2023-01-29T14:08:01;98468.78;;;0.69;100.00
36190;BME280;22232;50.914;13.858;2023-01-29T14:10:31;98466.19;;;0.52;100.00
36190;BME280;22232;50.914;13.858;2023-01-29T14:15:34;98458.16;;;0.53;100.00
36190;BME280;22232;50.914;13.858;2023-01-29T14:25:50;98459.50;;;0.57;100.00
36190;BME280;22232;50.914;13.858;2023-01-29T14:28:23;98456.06;;;0.57;100.00
36190;BME280;22232;50.914;13.858;2023-01-29T14:30:54;98468.50;;;0.55;100.00
36190;BME280;22232;50.914;13.858;2023-01-29T14:33:39;98455.97;;;0.49;100.00
36190;BME280;22232;50.914;13.858;2023-01-29T14:36:11;98453.91;;;0.52;100.00
36190;BME280;22232;50.914;13.858;2023-01-29T14:38:48;98445.88;;;0.54;100.00
36190;BME280;22232;50.914;13.858;2023-01-29T14:41:27;98442.50;;;0.43;100.00
36190;BME280;22232;50.914;13.858;2023-01-29T14:47:17;98438.84;;;0.18;100.00
36190;BME280;22232;50.914;13.858;2023-01-29T14:52:42;98438.66;;;0.02;100.00
36190;BME280;22232;50.914;13.858;2023-01-29T14:55:22;98438.53;;;0.04;100.00
36190;BME280;22232;50.914;13.858;2023-01-29T14:57:55;98445.00;;;-0.01;100.00
36190;BME280;22232;50.914;13.858;2023-01-29T15:00:29;98444.94;;;-0.09;100.00
36190;BME280;22232;50.914;13.858;2023-01-29T15:03:00;98459.00;;;-0.10;100.00
36190;BME280;22232;50.914;13.858;2023-01-29T15:05:35;98459.31;;;-0.13;100.00
36190;BME280;22232;50.914;13.858;2023-01-29T15:10:47;98446.94;;;-0.20;100.00
36190;BME280;22232;50.914;13.858;2023-01-29T15:13:47;98459.13;;;-0.29;100.00
36190;BME280;22232;50.914;13.858;2023-01-29T15:16:21;98449.22;;;-0.35;100.00
36190;BME280;22232;50.914;13.858;2023-01-29T15:18:55;98449.66;;;-0.40;100.00
36190;BME280;22232;50.914;13.858;2023-01-29T15:21:30;98440.97;;;-0.40;100.00
36190;BME280;22232;50.914;13.858;2023-01-29T15:24:05;98457.44;;;-0.48;100.00
36190;BME280;22232;50.914;13.858;2023-01-29T15:26:34;98450.16;;;-0.54;100.00
36190;BME280;22232;50.914;13.858;2023-01-29T15:29:02;98454.00;;;-0.58;100.00